createdAt,value
2023-01-19T00:00:22.625Z,15.23
2023-01-19T00:03:24.485Z,13.80
2023-01-19T00:06:26.485Z,12.70
2023-01-19T00:09:33.400Z,10.02
2023-01-19T00:12:35.374Z,16.10
2023-01-19T00:15:37.192Z,13.67
2023-01-19T00:18:39.995Z,12.48
2023-01-19T00:21:42.081Z,12.25
2023-01-19T00:24:45.065Z,10.80
2023-01-19T00:27:49.495Z,12.05
2023-01-19T00:30:52.233Z,14.10
2023-01-19T00:33:54.240Z,6.90
2023-01-19T00:36:56.099Z,10.80
2023-01-19T00:39:57.950Z,13.45
2023-01-19T00:43:00.625Z,8.70
2023-01-19T00:46:02.974Z,11.83
2023-01-19T00:49:05.556Z,12.50
2023-01-19T00:52:07.420Z,15.68
2023-01-19T00:55:11.602Z,14.95
2023-01-19T00:58:13.507Z,8.40
2023-01-19T01:01:15.451Z,9.73
2023-01-19T01:04:17.636Z,11.40
2023-01-19T01:07:19.500Z,13.65
2023-01-19T01:10:25.212Z,11.57
2023-01-19T01:13:28.166Z,11.77
2023-01-19T01:16:30.285Z,9.73
2023-01-19T01:19:32.198Z,9.05
2023-01-19T01:22:34.069Z,10.95
2023-01-19T01:25:37.912Z,8.48
2023-01-19T01:28:40.139Z,9.38
2023-01-19T01:31:42.085Z,13.40
2023-01-19T01:34:44.011Z,10.30
2023-01-19T01:38:02.972Z,17.83
2023-01-19T01:41:05.185Z,17.20
2023-01-19T01:44:49.723Z,12.65
2023-01-19T01:47:54.082Z,10.80
2023-01-19T01:51:24.194Z,18.55
2023-01-19T01:54:32.294Z,21.63
2023-01-19T01:57:41.937Z,21.65
2023-01-19T02:01:02.457Z,24.17
2023-01-19T02:04:04.484Z,19.30
2023-01-19T02:07:24.993Z,17.45
2023-01-19T02:10:45.436Z,19.10
2023-01-19T02:13:47.758Z,22.02
2023-01-19T02:16:49.795Z,11.38
2023-01-19T02:19:51.721Z,15.87
2023-01-19T02:22:59.373Z,18.58
2023-01-19T02:26:02.270Z,11.75
2023-01-19T02:29:07.860Z,14.38
2023-01-19T02:32:09.784Z,15.15
2023-01-19T02:35:13.059Z,11.43
2023-01-19T02:38:16.361Z,14.88
2023-01-19T02:41:25.499Z,12.10
2023-01-19T02:44:29.470Z,10.30
2023-01-19T02:47:39.012Z,12.93
2023-01-19T02:50:46.967Z,15.63
2023-01-19T02:53:51.844Z,15.77
2023-01-19T02:57:14.033Z,16.00
2023-01-19T03:00:28.139Z,15.98
2023-01-19T03:03:34.979Z,11.88
2023-01-19T03:06:47.061Z,13.90
2023-01-19T03:10:02.856Z,13.38
2023-01-19T03:13:10.636Z,16.63
2023-01-19T03:16:42.837Z,13.55
2023-01-19T03:19:48.666Z,12.90
2023-01-19T03:22:57.487Z,17.07
2023-01-19T03:26:01.033Z,13.50
2023-01-19T03:29:03.855Z,12.45
2023-01-19T03:32:12.506Z,9.80
2023-01-19T03:35:17.825Z,14.50
2023-01-19T03:38:26.247Z,11.87
2023-01-19T03:41:29.781Z,11.95
2023-01-19T03:44:34.923Z,12.23
2023-01-19T03:47:36.792Z,8.32
2023-01-19T03:50:38.871Z,8.88
2023-01-19T03:53:41.817Z,10.27
2023-01-19T03:56:44.759Z,10.00
2023-01-19T03:59:46.601Z,12.55
2023-01-19T04:02:48.643Z,9.20
2023-01-19T04:05:50.509Z,10.75
2023-01-19T04:08:52.530Z,8.17
2023-01-19T04:11:54.615Z,8.38
2023-01-19T04:14:56.518Z,7.22
2023-01-19T04:17:59.627Z,7.35
2023-01-19T04:21:06.633Z,7.72
2023-01-19T04:24:10.286Z,4.33
2023-01-19T04:27:12.267Z,7.82
2023-01-19T04:30:14.506Z,9.35
2023-01-19T04:33:16.409Z,7.53
2023-01-19T04:36:18.406Z,5.32
2023-01-19T04:39:20.428Z,5.30
2023-01-19T04:42:23.093Z,7.22
2023-01-19T04:46:00.560Z,8.02
2023-01-19T04:49:02.453Z,6.13
2023-01-19T04:52:07.506Z,6.60
2023-01-19T04:55:10.205Z,5.33
2023-01-19T04:58:12.654Z,5.85
2023-01-19T05:01:14.570Z,6.40
2023-01-19T05:04:16.460Z,7.55
2023-01-19T05:07:18.380Z,8.20
2023-01-19T05:10:20.544Z,5.57
2023-01-19T05:13:22.438Z,5.18
2023-01-19T05:16:24.370Z,6.15
2023-01-19T05:23:35.349Z,5.15
2023-01-19T05:26:37.526Z,4.47
2023-01-19T05:29:39.347Z,3.83
2023-01-19T05:32:41.267Z,4.18
2023-01-19T05:35:43.194Z,3.92
2023-01-19T05:38:45.792Z,6.05
2023-01-19T05:41:47.817Z,5.17
2023-01-19T05:44:49.737Z,6.13
2023-01-19T05:47:51.601Z,3.75
2023-01-19T05:50:57.908Z,4.78
2023-01-19T05:54:01.087Z,5.57
2023-01-19T05:57:03.658Z,3.90
2023-01-19T06:00:06.432Z,2.35
2023-01-19T06:03:11.065Z,3.97
2023-01-19T06:06:15.000Z,2.78
2023-01-19T06:09:17.520Z,3.40
2023-01-19T06:12:19.647Z,3.50
2023-01-19T06:15:21.569Z,4.00
2023-01-19T06:18:23.645Z,3.42
2023-01-19T06:21:25.664Z,2.97
2023-01-19T06:24:27.972Z,1.77
2023-01-19T06:27:30.151Z,2.50
2023-01-19T06:30:32.029Z,2.25
2023-01-19T06:33:35.561Z,3.22
2023-01-19T06:36:38.483Z,2.35
2023-01-19T06:39:41.124Z,1.80
2023-01-19T06:42:42.980Z,1.50
2023-01-19T06:45:46.103Z,1.98
2023-01-19T06:48:48.200Z,1.95
2023-01-19T06:51:50.453Z,2.13
2023-01-19T06:54:52.273Z,2.20
2023-01-19T06:57:58.807Z,2.80
2023-01-19T07:01:06.309Z,14.25
2023-01-19T07:04:08.613Z,101.55
2023-01-19T07:07:10.485Z,12.82
2023-01-19T07:10:15.723Z,1.73
2023-01-19T07:13:17.797Z,1.13
2023-01-19T07:16:20.016Z,1.10
2023-01-19T07:19:21.893Z,1.75
2023-01-19T07:22:24.380Z,2.30
2023-01-19T07:25:27.103Z,5.75
2023-01-19T07:28:29.990Z,1.80
2023-01-19T07:31:32.001Z,2.65
2023-01-19T07:34:34.640Z,3.38
2023-01-19T07:37:36.591Z,3.13
2023-01-19T07:40:38.531Z,3.78
2023-01-19T07:43:40.433Z,2.83
2023-01-19T07:46:43.367Z,1.05
2023-01-19T07:49:45.470Z,2.45
2023-01-19T07:52:48.386Z,2.10
2023-01-19T07:55:55.145Z,1.83
2023-01-19T07:58:57.841Z,3.87
2023-01-19T08:02:00.301Z,3.10
2023-01-19T08:05:02.913Z,2.05
2023-01-19T08:08:05.596Z,1.58
2023-01-19T08:11:08.580Z,3.28
2023-01-19T08:14:10.699Z,2.03
2023-01-19T08:17:14.045Z,4.50
2023-01-19T08:20:15.998Z,5.45
2023-01-19T08:23:18.680Z,4.32
2023-01-19T08:26:27.448Z,4.55
2023-01-19T08:29:31.887Z,1.90
2023-01-19T08:32:33.796Z,2.92
2023-01-19T08:35:41.864Z,5.63
2023-01-19T08:38:47.113Z,2.00
2023-01-19T08:41:48.948Z,3.13
2023-01-19T08:44:58.139Z,7.33
2023-01-19T08:48:01.229Z,2.90
2023-01-19T08:51:03.396Z,1.13
2023-01-19T08:54:05.513Z,1.08
2023-01-19T08:57:07.687Z,0.70
2023-01-19T09:00:11.264Z,1.03
2023-01-19T09:03:14.038Z,1.77
2023-01-19T09:06:18.445Z,2.45
2023-01-19T09:09:20.319Z,1.77
2023-01-19T09:12:22.260Z,2.10
2023-01-19T09:15:24.136Z,3.43
2023-01-19T09:18:26.146Z,1.67
2023-01-19T09:21:28.885Z,1.75
2023-01-19T09:24:30.914Z,3.00
2023-01-19T09:27:32.915Z,1.60
2023-01-19T09:30:37.341Z,0.90
2023-01-19T09:33:39.348Z,1.63
2023-01-19T09:36:41.201Z,1.73
2023-01-19T09:39:43.338Z,1.33
2023-01-19T09:42:53.734Z,1.50
2023-01-19T09:45:59.392Z,1.20
2023-01-19T09:49:14.589Z,1.10
2023-01-19T09:52:18.431Z,1.20
2023-01-19T09:55:25.508Z,0.75
2023-01-19T09:58:28.896Z,0.77
2023-01-19T10:01:57.749Z,0.80
2023-01-19T10:05:03.725Z,1.45
2023-01-19T10:08:18.348Z,1.20
2023-01-19T10:11:42.049Z,1.08
2023-01-19T10:15:15.201Z,0.68
2023-01-19T10:22:24.554Z,1.23
2023-01-19T10:25:27.439Z,0.70
2023-01-19T10:28:30.093Z,0.70
2023-01-19T10:31:33.574Z,1.67
2023-01-19T10:34:35.781Z,0.60
2023-01-19T10:37:38.439Z,1.60
2023-01-19T10:40:55.221Z,1.35
2023-01-19T10:44:03.213Z,0.98
2023-01-19T10:47:11.767Z,1.30
2023-01-19T10:50:32.191Z,1.50
2023-01-19T10:53:34.464Z,2.15
2023-01-19T10:56:38.527Z,2.15
2023-01-19T10:59:51.548Z,1.50
2023-01-19T11:02:53.532Z,1.92
2023-01-19T11:06:13.654Z,2.97
2023-01-19T11:09:18.204Z,2.17
2023-01-19T11:12:23.074Z,1.65
2023-01-19T11:15:40.906Z,4.68
2023-01-19T11:18:43.756Z,3.45
2023-01-19T11:21:45.601Z,2.60
2023-01-19T11:24:48.045Z,1.67
2023-01-19T11:27:51.992Z,2.85
2023-01-19T11:31:14.804Z,2.17
2023-01-19T11:34:38.692Z,1.63
2023-01-19T11:37:43.204Z,1.73
2023-01-19T11:40:53.056Z,2.58
2023-01-19T11:43:58.120Z,5.70
2023-01-19T11:47:06.152Z,2.88
2023-01-19T11:50:31.787Z,2.33
2023-01-19T11:53:34.616Z,8.83
2023-01-19T11:56:36.798Z,7.45
2023-01-19T11:59:38.722Z,4.32
2023-01-19T12:02:47.781Z,8.50
2023-01-19T12:05:53.964Z,12.27
2023-01-19T12:09:03.127Z,2.90
2023-01-19T12:12:08.593Z,2.15
2023-01-19T12:15:38.237Z,1.63
2023-01-19T12:18:45.269Z,1.85
2023-01-19T12:21:48.488Z,1.75
2023-01-19T12:25:01.126Z,3.37
2023-01-19T12:28:03.447Z,7.45
2023-01-19T12:31:05.587Z,3.88
2023-01-19T12:34:39.813Z,3.55
2023-01-19T12:37:43.371Z,2.15
2023-01-19T12:40:45.494Z,2.77
2023-01-19T12:43:49.972Z,7.38
2023-01-19T12:47:04.287Z,5.13
2023-01-19T12:50:16.921Z,7.43
2023-01-19T12:53:21.269Z,11.00
2023-01-19T12:56:36.683Z,4.63
2023-01-19T12:59:39.624Z,4.70
2023-01-19T13:02:44.128Z,5.00
2023-01-19T13:05:56.486Z,6.97
2023-01-19T13:09:00.495Z,8.27
2023-01-19T13:12:14.562Z,9.50
2023-01-19T13:15:35.651Z,5.03
2023-01-19T13:18:41.817Z,10.23
2023-01-19T13:21:48.574Z,7.88
2023-01-19T13:25:11.330Z,11.20
2023-01-19T13:28:16.321Z,10.00
2023-01-19T13:31:19.490Z,11.15
2023-01-19T13:34:25.623Z,5.45
2023-01-19T13:37:35.592Z,3.42
2023-01-19T13:40:39.078Z,4.88
2023-01-19T13:43:42.446Z,8.60
2023-01-19T13:46:46.687Z,9.88
2023-01-19T13:49:55.513Z,10.38
2023-01-19T13:52:59.509Z,6.43
2023-01-19T13:56:17.197Z,8.45
2023-01-19T13:59:19.334Z,12.37
2023-01-19T14:02:21.469Z,10.93
2023-01-19T14:05:34.385Z,9.27
2023-01-19T14:08:36.597Z,12.52
2023-01-19T14:11:38.522Z,21.17
2023-01-19T14:14:46.936Z,11.23
2023-01-19T14:18:08.991Z,10.15
2023-01-19T14:21:13.522Z,7.53
2023-01-19T14:24:19.062Z,12.88
2023-01-19T14:27:24.805Z,14.68
2023-01-19T14:30:27.915Z,6.87
2023-01-19T14:33:40.099Z,4.97
2023-01-19T14:36:44.321Z,2.38
2023-01-19T14:39:49.137Z,4.60
2023-01-19T14:42:57.539Z,6.10
2023-01-19T14:46:45.149Z,18.20
2023-01-19T14:49:48.084Z,5.38
2023-01-19T14:53:00.689Z,5.55
2023-01-19T14:56:05.598Z,19.17
2023-01-19T14:59:10.992Z,11.13
2023-01-19T15:02:13.283Z,12.60
2023-01-19T15:05:15.915Z,9.80
2023-01-19T15:08:25.504Z,14.65
2023-01-19T15:11:31.339Z,10.20
2023-01-19T15:14:33.260Z,12.93
2023-01-19T15:17:35.239Z,13.43
2023-01-19T15:20:37.159Z,10.40
2023-01-19T15:23:39.002Z,17.08
2023-01-19T15:26:42.729Z,12.65
2023-01-19T15:29:46.072Z,9.57
2023-01-19T15:32:48.139Z,22.17
2023-01-19T15:36:05.430Z,15.25
2023-01-19T15:39:07.346Z,14.80
2023-01-19T15:42:15.753Z,10.52
2023-01-19T15:45:34.944Z,19.15
2023-01-19T15:48:37.855Z,31.53
2023-01-19T15:51:39.956Z,30.80
2023-01-19T15:54:41.765Z,46.25
2023-01-19T15:57:43.722Z,28.08
2023-01-19T16:00:45.606Z,27.10
2023-01-19T16:03:48.021Z,22.27
2023-01-19T16:06:50.145Z,31.08
2023-01-19T16:14:17.477Z,58.83
2023-01-19T16:17:20.166Z,39.50
2023-01-19T16:20:22.061Z,43.60
2023-01-19T16:23:24.122Z,37.55
2023-01-19T16:26:28.495Z,21.23
2023-01-19T16:29:31.594Z,25.08
2023-01-19T16:32:35.100Z,15.55
2023-01-19T16:35:36.940Z,5.70
2023-01-19T16:38:38.892Z,8.27
2023-01-19T16:41:41.651Z,4.85
2023-01-19T16:44:43.732Z,4.82
2023-01-19T16:47:50.492Z,10.52
2023-01-19T16:51:12.692Z,3.07
2023-01-19T16:54:17.411Z,6.25
2023-01-19T16:57:19.197Z,8.73
2023-01-19T17:00:21.772Z,2.70
2023-01-19T17:03:23.655Z,3.33
2023-01-19T17:06:26.340Z,10.70
2023-01-19T17:09:29.111Z,20.85
2023-01-19T17:12:32.339Z,11.57
2023-01-19T17:15:34.895Z,11.07
2023-01-19T17:18:37.981Z,7.65
2023-01-19T17:21:39.949Z,4.43
2023-01-19T17:24:43.218Z,4.18
2023-01-19T17:27:45.232Z,3.15
2023-01-19T17:30:48.177Z,3.78
2023-01-19T17:33:50.699Z,3.92
2023-01-19T17:36:53.026Z,4.07
2023-01-19T17:39:56.517Z,5.13
2023-01-19T17:42:58.697Z,4.13
2023-01-19T17:46:00.600Z,4.65
2023-01-19T17:49:05.311Z,6.93
2023-01-19T17:52:07.589Z,6.97
2023-01-19T17:55:10.264Z,5.97
2023-01-19T17:58:12.987Z,8.45
2023-01-19T18:01:26.524Z,7.70
2023-01-19T18:04:29.816Z,7.22
2023-01-19T18:07:33.490Z,6.20
2023-01-19T18:10:35.545Z,5.82
2023-01-19T18:13:38.444Z,10.13
2023-01-19T18:16:40.493Z,5.90
2023-01-19T18:19:42.866Z,7.50
2023-01-19T18:22:44.993Z,7.93
2023-01-19T18:25:47.172Z,10.23
2023-01-19T18:28:49.664Z,8.77
2023-01-19T18:31:52.226Z,9.27
2023-01-19T18:34:54.467Z,33.13
2023-01-19T18:38:32.253Z,8.70
2023-01-19T18:41:37.047Z,8.93
2023-01-19T18:44:39.337Z,7.97
2023-01-19T18:47:41.500Z,9.75
2023-01-19T18:50:43.950Z,8.68
2023-01-19T18:53:46.241Z,11.03
2023-01-19T18:56:50.577Z,9.05
2023-01-19T18:59:52.504Z,8.73
2023-01-19T19:02:55.672Z,6.25
2023-01-19T19:06:02.972Z,6.43
2023-01-19T19:09:05.474Z,6.27
2023-01-19T19:12:09.709Z,4.97
2023-01-19T19:15:13.951Z,6.18
2023-01-19T19:18:16.374Z,9.82
2023-01-19T19:21:19.930Z,3.88
2023-01-19T19:24:22.723Z,6.73
2023-01-19T19:27:24.744Z,8.73
2023-01-19T19:30:27.057Z,9.95
2023-01-19T19:33:29.392Z,8.27
2023-01-19T19:36:32.577Z,9.15
2023-01-19T19:39:35.997Z,7.23
2023-01-19T19:42:39.149Z,9.30
2023-01-19T19:45:41.154Z,8.55
2023-01-19T19:48:43.417Z,7.95
2023-01-19T19:51:45.656Z,8.18
2023-01-19T19:54:48.593Z,10.33
2023-01-19T19:57:50.442Z,10.77
2023-01-19T20:00:53.045Z,8.05
2023-01-19T20:04:03.876Z,10.20
2023-01-19T20:07:06.149Z,9.10
2023-01-19T20:10:08.867Z,16.37
2023-01-19T20:13:12.231Z,17.83
2023-01-19T20:16:19.778Z,13.23
2023-01-19T20:19:21.745Z,17.88
2023-01-19T20:22:24.106Z,14.15
2023-01-19T20:25:26.545Z,14.80
2023-01-19T20:28:28.948Z,11.60
2023-01-19T20:31:32.849Z,11.30
2023-01-19T20:34:35.707Z,11.52
2023-01-19T20:37:37.860Z,13.95
2023-01-19T20:40:40.535Z,11.83
2023-01-19T20:43:42.421Z,7.45
2023-01-19T20:46:44.729Z,8.68
2023-01-19T20:49:46.940Z,8.20
2023-01-19T20:52:50.068Z,10.27
2023-01-19T20:55:52.541Z,11.27
2023-01-19T20:58:54.894Z,12.15
2023-01-19T21:01:57.152Z,16.58
2023-01-19T21:04:59.445Z,16.45
2023-01-19T21:08:01.661Z,19.77
2023-01-19T21:36:53.872Z,12.67
2023-01-19T21:52:11.967Z,22.50
2023-01-19T21:56:17.898Z,26.98
2023-01-19T22:39:06.098Z,27.52
2023-01-19T22:42:07.946Z,27.27
2023-01-19T22:45:10.157Z,29.30
2023-01-19T22:48:12.055Z,26.73
2023-01-19T22:51:14.927Z,30.80
2023-01-19T22:54:16.804Z,30.25
2023-01-19T22:57:18.733Z,31.30
2023-01-19T23:00:21.288Z,34.45
2023-01-19T23:03:23.284Z,35.83
2023-01-19T23:06:27.890Z,36.38
2023-01-19T23:09:29.995Z,33.60
2023-01-19T23:12:32.022Z,32.90
2023-01-19T23:15:34.885Z,28.95
2023-01-19T23:18:37.156Z,32.00
2023-01-19T23:21:39.388Z,30.98
2023-01-19T23:24:41.177Z,30.88
2023-01-19T23:27:43.027Z,29.13
2023-01-19T23:30:44.951Z,28.38
2023-01-19T23:33:46.863Z,31.53
2023-01-19T23:36:48.772Z,29.95
2023-01-19T23:39:50.679Z,27.13
2023-01-19T23:42:54.879Z,29.98
2023-01-19T23:45:56.825Z,28.27
2023-01-19T23:48:59.010Z,25.50
2023-01-19T23:52:00.911Z,32.92
2023-01-19T23:55:02.881Z,35.65
2023-01-19T23:58:05.027Z,46.10
